Pagina principale
METAR-TAF:

METAR-TAF

Aeroporti :

Užice, Serbia

latitudine: 43-53-56N, longitudine: 19-41-52E, altezza: 904 m

Osservazione

Il bollettino è stato emesso 34 minuti fa, alle 10:00 UTC
Vento 14 kt da ovest, variando fra ovest/sud-ovest e nord-ovest
Temperature 6°C
Umidità 100%
Pressione 1016 hPa
Visibilità: 0500 m
pioggia debole, nebbia

METAR: LYUZ 211000Z 28014KT 240V310 0500 -RA FG VV002 06/06 Q1016

Ora: 12:34 (10:34 UTC)

Previsione

Il bollettino è stato emesso 5 ore e 34 minuti fa, alle 05:00 UTC
Previsione valida dal 21 alle 06 UTC al 22 alle 06 UTC
Vento 9 kt da ovest/nord-ovest
Visibilità: 5000 m
Cielo coperto ad un'altezza di 500 ft
pioggia debole
Temporaneamente
dal 21 alle 11 UTC al 22 alle 06 UTC
Visibilità: 0300 m
ad un'altezza di 300 ft
pioggia, nebbia

TAF: LYUZ 210500Z 2106/2206 29009KT 5000 -RA OVC005 TX09/2113Z TN04/2204Z TEMPO 2111/2206 0300 RA FG VV003

Osservazioni e previsioni meteorologiche di più di 4000 aeroporti (messaggi METAR e TAF).

Le stazioni disponibili sono rappresentate dai dischi gialli e rossi sulla carta.

Puntare il mouse per vedere il nome della stazione.

Clicca sopra per visualizzare le osservazioni e previsioni meteorologiche.

Per cambiare la mappa : fare clic sui pulsanti verdi con una croce nera per ingrandire, il pulsante verde con un trattino per diminuire, o sulla freccia verde per le mappe adiacenti.


METAR-TAF: